sensor_id;sensor_type;location;lat;lon;timestamp;P1;durP1;ratioP1;P2;durP2;ratioP2
12591;SDS011;6361;52.120;5.108;2023-04-03T00:01:22;3.95;;;1.67;;
12591;SDS011;6361;52.120;5.108;2023-04-03T00:03:47;3.25;;;1.70;;
12591;SDS011;6361;52.120;5.108;2023-04-03T00:06:12;4.28;;;1.70;;
12591;SDS011;6361;52.120;5.108;2023-04-03T00:08:38;4.25;;;1.67;;
12591;SDS011;6361;52.120;5.108;2023-04-03T00:11:04;3.10;;;1.80;;
12591;SDS011;6361;52.120;5.108;2023-04-03T00:13:30;3.08;;;1.70;;
12591;SDS011;6361;52.120;5.108;2023-04-03T00:15:56;6.90;;;1.73;;
12591;SDS011;6361;52.120;5.108;2023-04-03T00:18:22;3.28;;;1.70;;
12591;SDS011;6361;52.120;5.108;2023-04-03T00:20:47;3.05;;;1.55;;
12591;SDS011;6361;52.120;5.108;2023-04-03T00:23:13;2.72;;;1.60;;
12591;SDS011;6361;52.120;5.108;2023-04-03T00:25:38;6.63;;;2.05;;
12591;SDS011;6361;52.120;5.108;2023-04-03T00:28:04;4.82;;;1.60;;
12591;SDS011;6361;52.120;5.108;2023-04-03T00:30:30;3.47;;;1.80;;
12591;SDS011;6361;52.120;5.108;2023-04-03T00:32:56;2.78;;;1.60;;
12591;SDS011;6361;52.120;5.108;2023-04-03T00:35:23;2.92;;;1.90;;
12591;SDS011;6361;52.120;5.108;2023-04-03T00:37:52;4.93;;;1.73;;
12591;SDS011;6361;52.120;5.108;2023-04-03T00:40:18;2.97;;;1.70;;
12591;SDS011;6361;52.120;5.108;2023-04-03T00:42:44;3.70;;;1.73;;
12591;SDS011;6361;52.120;5.108;2023-04-03T00:47:36;6.25;;;2.00;;
12591;SDS011;6361;52.120;5.108;2023-04-03T00:50:04;4.00;;;1.85;;
12591;SDS011;6361;52.120;5.108;2023-04-03T00:52:30;4.45;;;1.90;;
12591;SDS011;6361;52.120;5.108;2023-04-03T00:54:57;4.10;;;1.80;;
12591;SDS011;6361;52.120;5.108;2023-04-03T00:57:25;4.18;;;1.80;;
12591;SDS011;6361;52.120;5.108;2023-04-03T00:59:52;5.68;;;1.70;;
12591;SDS011;6361;52.120;5.108;2023-04-03T01:02:30;3.40;;;1.83;;
12591;SDS011;6361;52.120;5.108;2023-04-03T01:04:56;5.10;;;1.77;;
12591;SDS011;6361;52.120;5.108;2023-04-03T01:07:22;2.95;;;1.80;;
12591;SDS011;6361;52.120;5.108;2023-04-03T01:09:49;4.55;;;2.08;;
12591;SDS011;6361;52.120;5.108;2023-04-03T01:14:52;3.42;;;1.70;;
12591;SDS011;6361;52.120;5.108;2023-04-03T01:22:56;3.97;;;1.88;;
12591;SDS011;6361;52.120;5.108;2023-04-03T01:25:22;3.55;;;1.70;;
12591;SDS011;6361;52.120;5.108;2023-04-03T01:27:48;2.65;;;1.88;;
12591;SDS011;6361;52.120;5.108;2023-04-03T01:30:14;5.10;;;1.70;;
12591;SDS011;6361;52.120;5.108;2023-04-03T01:32:42;4.13;;;2.10;;
12591;SDS011;6361;52.120;5.108;2023-04-03T01:35:08;4.63;;;2.03;;
12591;SDS011;6361;52.120;5.108;2023-04-03T01:37:34;3.38;;;1.90;;
12591;SDS011;6361;52.120;5.108;2023-04-03T01:39:59;4.50;;;2.00;;
12591;SDS011;6361;52.120;5.108;2023-04-03T01:42:25;3.08;;;1.80;;
12591;SDS011;6361;52.120;5.108;2023-04-03T01:44:50;3.17;;;1.80;;
12591;SDS011;6361;52.120;5.108;2023-04-03T01:47:15;3.53;;;1.80;;
12591;SDS011;6361;52.120;5.108;2023-04-03T01:49:40;3.40;;;1.90;;
12591;SDS011;6361;52.120;5.108;2023-04-03T01:52:06;5.53;;;1.98;;
12591;SDS011;6361;52.120;5.108;2023-04-03T01:54:31;4.20;;;2.08;;
12591;SDS011;6361;52.120;5.108;2023-04-03T01:56:57;4.25;;;1.73;;
12591;SDS011;6361;52.120;5.108;2023-04-03T01:59:23;3.08;;;1.65;;
12591;SDS011;6361;52.120;5.108;2023-04-03T02:01:48;2.85;;;2.00;;
12591;SDS011;6361;52.120;5.108;2023-04-03T02:04:13;4.53;;;2.17;;
12591;SDS011;6361;52.120;5.108;2023-04-03T02:06:39;2.80;;;1.70;;
12591;SDS011;6361;52.120;5.108;2023-04-03T02:09:04;5.85;;;2.33;;
12591;SDS011;6361;52.120;5.108;2023-04-03T02:11:30;2.92;;;1.83;;
12591;SDS011;6361;52.120;5.108;2023-04-03T02:13:56;4.97;;;2.00;;
12591;SDS011;6361;52.120;5.108;2023-04-03T02:16:21;4.07;;;2.00;;
12591;SDS011;6361;52.120;5.108;2023-04-03T02:18:46;3.35;;;1.90;;
12591;SDS011;6361;52.120;5.108;2023-04-03T02:21:12;4.57;;;2.10;;
12591;SDS011;6361;52.120;5.108;2023-04-03T02:23:37;3.85;;;1.73;;
12591;SDS011;6361;52.120;5.108;2023-04-03T02:26:06;4.20;;;2.00;;
12591;SDS011;6361;52.120;5.108;2023-04-03T02:28:34;4.75;;;2.40;;
12591;SDS011;6361;52.120;5.108;2023-04-03T02:30:59;3.97;;;1.88;;
12591;SDS011;6361;52.120;5.108;2023-04-03T02:33:25;5.78;;;1.80;;
12591;SDS011;6361;52.120;5.108;2023-04-03T02:35:54;4.70;;;2.10;;
12591;SDS011;6361;52.120;5.108;2023-04-03T02:38:20;5.07;;;2.00;;
12591;SDS011;6361;52.120;5.108;2023-04-03T02:40:46;5.53;;;2.47;;
12591;SDS011;6361;52.120;5.108;2023-04-03T02:43:11;3.42;;;2.00;;
12591;SDS011;6361;52.120;5.108;2023-04-03T02:45:36;3.42;;;2.13;;
12591;SDS011;6361;52.120;5.108;2023-04-03T02:48:02;5.85;;;2.40;;
12591;SDS011;6361;52.120;5.108;2023-04-03T02:50:27;5.63;;;2.90;;
12591;SDS011;6361;52.120;5.108;2023-04-03T02:52:53;4.10;;;2.90;;
12591;SDS011;6361;52.120;5.108;2023-04-03T02:55:18;5.57;;;3.22;;
12591;SDS011;6361;52.120;5.108;2023-04-03T02:57:43;5.38;;;3.40;;
12591;SDS011;6361;52.120;5.108;2023-04-03T03:00:09;6.35;;;2.35;;
12591;SDS011;6361;52.120;5.108;2023-04-03T03:02:35;5.55;;;2.33;;
12591;SDS011;6361;52.120;5.108;2023-04-03T03:05:00;4.60;;;2.28;;
12591;SDS011;6361;52.120;5.108;2023-04-03T03:07:25;4.32;;;2.20;;
12591;SDS011;6361;52.120;5.108;2023-04-03T03:09:53;4.63;;;2.08;;
12591;SDS011;6361;52.120;5.108;2023-04-03T03:12:18;4.47;;;2.20;;
12591;SDS011;6361;52.120;5.108;2023-04-03T03:14:46;5.50;;;2.00;;
12591;SDS011;6361;52.120;5.108;2023-04-03T03:17:12;4.35;;;2.03;;
12591;SDS011;6361;52.120;5.108;2023-04-03T03:19:38;4.85;;;2.03;;
12591;SDS011;6361;52.120;5.108;2023-04-03T03:22:03;3.17;;;1.85;;
12591;SDS011;6361;52.120;5.108;2023-04-03T03:24:28;4.75;;;2.17;;
12591;SDS011;6361;52.120;5.108;2023-04-03T03:26:54;4.03;;;2.10;;
12591;SDS011;6361;52.120;5.108;2023-04-03T03:29:20;4.35;;;1.90;;
12591;SDS011;6361;52.120;5.108;2023-04-03T03:31:45;5.53;;;3.03;;
12591;SDS011;6361;52.120;5.108;2023-04-03T03:34:11;4.43;;;2.20;;
12591;SDS011;6361;52.120;5.108;2023-04-03T03:36:36;4.18;;;1.92;;
12591;SDS011;6361;52.120;5.108;2023-04-03T03:39:02;8.68;;;2.45;;
12591;SDS011;6361;52.120;5.108;2023-04-03T03:41:27;6.88;;;1.77;;
12591;SDS011;6361;52.120;5.108;2023-04-03T03:43:52;5.18;;;2.22;;
12591;SDS011;6361;52.120;5.108;2023-04-03T03:46:18;3.30;;;2.00;;
12591;SDS011;6361;52.120;5.108;2023-04-03T03:48:43;3.72;;;2.00;;
12591;SDS011;6361;52.120;5.108;2023-04-03T03:51:09;3.75;;;1.73;;
12591;SDS011;6361;52.120;5.108;2023-04-03T03:53:34;4.13;;;2.10;;
12591;SDS011;6361;52.120;5.108;2023-04-03T03:56:00;4.78;;;1.80;;
12591;SDS011;6361;52.120;5.108;2023-04-03T03:58:25;5.00;;;2.13;;
12591;SDS011;6361;52.120;5.108;2023-04-03T04:00:51;3.80;;;2.00;;
12591;SDS011;6361;52.120;5.108;2023-04-03T04:03:16;4.35;;;2.17;;
12591;SDS011;6361;52.120;5.108;2023-04-03T04:05:41;3.95;;;1.80;;
12591;SDS011;6361;52.120;5.108;2023-04-03T04:08:07;3.88;;;2.00;;
12591;SDS011;6361;52.120;5.108;2023-04-03T04:10:33;5.45;;;2.30;;
12591;SDS011;6361;52.120;5.108;2023-04-03T04:12:58;4.45;;;2.20;;
12591;SDS011;6361;52.120;5.108;2023-04-03T04:15:24;5.03;;;2.20;;
12591;SDS011;6361;52.120;5.108;2023-04-03T04:17:50;4.10;;;2.25;;
12591;SDS011;6361;52.120;5.108;2023-04-03T04:20:16;6.80;;;2.30;;
12591;SDS011;6361;52.120;5.108;2023-04-03T04:22:41;4.85;;;2.30;;
12591;SDS011;6361;52.120;5.108;2023-04-03T04:25:07;4.82;;;2.33;;
12591;SDS011;6361;52.120;5.108;2023-04-03T04:27:32;5.65;;;2.40;;
12591;SDS011;6361;52.120;5.108;2023-04-03T04:29:58;3.92;;;2.50;;
12591;SDS011;6361;52.120;5.108;2023-04-03T04:32:23;5.03;;;2.40;;
12591;SDS011;6361;52.120;5.108;2023-04-03T04:34:48;4.80;;;2.13;;
12591;SDS011;6361;52.120;5.108;2023-04-03T04:37:14;4.63;;;2.22;;
12591;SDS011;6361;52.120;5.108;2023-04-03T04:39:39;5.05;;;2.38;;
12591;SDS011;6361;52.120;5.108;2023-04-03T04:42:05;6.18;;;2.50;;
12591;SDS011;6361;52.120;5.108;2023-04-03T04:44:32;3.67;;;1.85;;
12591;SDS011;6361;52.120;5.108;2023-04-03T04:46:57;4.47;;;2.17;;
12591;SDS011;6361;52.120;5.108;2023-04-03T04:49:22;4.55;;;2.13;;
12591;SDS011;6361;52.120;5.108;2023-04-03T04:51:48;4.43;;;2.20;;
12591;SDS011;6361;52.120;5.108;2023-04-03T04:54:13;6.55;;;2.35;;
12591;SDS011;6361;52.120;5.108;2023-04-03T04:56:38;5.47;;;2.40;;
12591;SDS011;6361;52.120;5.108;2023-04-03T04:59:04;4.88;;;2.22;;
12591;SDS011;6361;52.120;5.108;2023-04-03T05:01:29;3.90;;;2.40;;
12591;SDS011;6361;52.120;5.108;2023-04-03T05:03:55;7.50;;;2.40;;
12591;SDS011;6361;52.120;5.108;2023-04-03T05:06:20;7.20;;;2.25;;
12591;SDS011;6361;52.120;5.108;2023-04-03T05:08:45;6.47;;;2.35;;
12591;SDS011;6361;52.120;5.108;2023-04-03T05:11:11;5.65;;;2.20;;
12591;SDS011;6361;52.120;5.108;2023-04-03T05:13:36;5.07;;;2.40;;
12591;SDS011;6361;52.120;5.108;2023-04-03T05:16:02;7.38;;;2.75;;
12591;SDS011;6361;52.120;5.108;2023-04-03T05:18:27;4.53;;;2.28;;
12591;SDS011;6361;52.120;5.108;2023-04-03T05:20:52;9.18;;;3.47;;
12591;SDS011;6361;52.120;5.108;2023-04-03T05:23:18;9.23;;;3.38;;
12591;SDS011;6361;52.120;5.108;2023-04-03T05:25:43;5.90;;;2.70;;
12591;SDS011;6361;52.120;5.108;2023-04-03T05:28:10;13.35;;;3.10;;
12591;SDS011;6361;52.120;5.108;2023-04-03T05:30:35;9.80;;;3.20;;
12591;SDS011;6361;52.120;5.108;2023-04-03T05:33:01;8.20;;;3.15;;
12591;SDS011;6361;52.120;5.108;2023-04-03T05:35:26;5.03;;;2.38;;
12591;SDS011;6361;52.120;5.108;2023-04-03T05:37:52;4.97;;;2.60;;
12591;SDS011;6361;52.120;5.108;2023-04-03T05:40:17;9.10;;;2.40;;
12591;SDS011;6361;52.120;5.108;2023-04-03T05:42:43;6.82;;;2.63;;
12591;SDS011;6361;52.120;5.108;2023-04-03T05:45:09;6.82;;;2.90;;
12591;SDS011;6361;52.120;5.108;2023-04-03T05:47:35;10.60;;;3.00;;
12591;SDS011;6361;52.120;5.108;2023-04-03T05:50:00;5.78;;;2.65;;
12591;SDS011;6361;52.120;5.108;2023-04-03T05:52:27;10.38;;;3.03;;
12591;SDS011;6361;52.120;5.108;2023-04-03T05:54:54;6.03;;;2.55;;
12591;SDS011;6361;52.120;5.108;2023-04-03T05:57:19;7.15;;;2.67;;
12591;SDS011;6361;52.120;5.108;2023-04-03T05:59:46;9.85;;;2.70;;
12591;SDS011;6361;52.120;5.108;2023-04-03T06:02:12;6.97;;;2.67;;
12591;SDS011;6361;52.120;5.108;2023-04-03T06:04:39;6.38;;;2.72;;
12591;SDS011;6361;52.120;5.108;2023-04-03T06:07:05;9.15;;;2.83;;
12591;SDS011;6361;52.120;5.108;2023-04-03T06:09:30;7.03;;;2.78;;
12591;SDS011;6361;52.120;5.108;2023-04-03T06:11:56;7.20;;;2.72;;
12591;SDS011;6361;52.120;5.108;2023-04-03T06:14:24;6.53;;;2.63;;
12591;SDS011;6361;52.120;5.108;2023-04-03T06:16:50;7.07;;;3.05;;
12591;SDS011;6361;52.120;5.108;2023-04-03T06:19:15;7.50;;;3.05;;
12591;SDS011;6361;52.120;5.108;2023-04-03T06:21:41;5.88;;;2.95;;
12591;SDS011;6361;52.120;5.108;2023-04-03T06:24:07;7.20;;;2.60;;
12591;SDS011;6361;52.120;5.108;2023-04-03T06:26:33;6.53;;;3.10;;
12591;SDS011;6361;52.120;5.108;2023-04-03T06:28:59;6.93;;;2.53;;
12591;SDS011;6361;52.120;5.108;2023-04-03T06:31:25;7.18;;;2.40;;
12591;SDS011;6361;52.120;5.108;2023-04-03T06:33:50;9.63;;;2.90;;
12591;SDS011;6361;52.120;5.108;2023-04-03T06:36:18;5.15;;;2.60;;
12591;SDS011;6361;52.120;5.108;2023-04-03T06:38:45;8.48;;;2.75;;
12591;SDS011;6361;52.120;5.108;2023-04-03T06:41:11;5.60;;;2.40;;
12591;SDS011;6361;52.120;5.108;2023-04-03T06:43:36;7.55;;;2.60;;
12591;SDS011;6361;52.120;5.108;2023-04-03T06:46:02;8.07;;;2.80;;
12591;SDS011;6361;52.120;5.108;2023-04-03T06:48:27;6.57;;;2.72;;
12591;SDS011;6361;52.120;5.108;2023-04-03T06:50:53;7.40;;;2.85;;
12591;SDS011;6361;52.120;5.108;2023-04-03T06:53:18;8.95;;;2.63;;
12591;SDS011;6361;52.120;5.108;2023-04-03T06:55:43;8.77;;;2.53;;
12591;SDS011;6361;52.120;5.108;2023-04-03T06:58:09;7.15;;;2.50;;
12591;SDS011;6361;52.120;5.108;2023-04-03T07:00:34;9.38;;;2.30;;
12591;SDS011;6361;52.120;5.108;2023-04-03T07:03:00;9.23;;;2.30;;
12591;SDS011;6361;52.120;5.108;2023-04-03T07:05:25;7.53;;;2.63;;
12591;SDS011;6361;52.120;5.108;2023-04-03T07:07:52;5.97;;;2.17;;
12591;SDS011;6361;52.120;5.108;2023-04-03T07:10:18;5.78;;;2.22;;
12591;SDS011;6361;52.120;5.108;2023-04-03T07:12:43;7.22;;;2.20;;
12591;SDS011;6361;52.120;5.108;2023-04-03T07:15:09;5.80;;;2.30;;
12591;SDS011;6361;52.120;5.108;2023-04-03T07:17:35;7.70;;;2.55;;
12591;SDS011;6361;52.120;5.108;2023-04-03T07:20:02;7.32;;;2.40;;
12591;SDS011;6361;52.120;5.108;2023-04-03T07:22:28;5.93;;;2.20;;
12591;SDS011;6361;52.120;5.108;2023-04-03T07:24:54;6.53;;;2.20;;
12591;SDS011;6361;52.120;5.108;2023-04-03T07:27:19;8.05;;;2.20;;
12591;SDS011;6361;52.120;5.108;2023-04-03T07:29:45;4.40;;;2.10;;
12591;SDS011;6361;52.120;5.108;2023-04-03T07:32:13;10.50;;;2.17;;
12591;SDS011;6361;52.120;5.108;2023-04-03T07:34:38;5.85;;;2.35;;
12591;SDS011;6361;52.120;5.108;2023-04-03T07:37:04;7.28;;;2.72;;
12591;SDS011;6361;52.120;5.108;2023-04-03T07:39:29;5.28;;;2.22;;
12591;SDS011;6361;52.120;5.108;2023-04-03T07:41:55;6.93;;;2.22;;
12591;SDS011;6361;52.120;5.108;2023-04-03T07:44:21;6.05;;;2.00;;
12591;SDS011;6361;52.120;5.108;2023-04-03T07:46:46;6.43;;;2.05;;
12591;SDS011;6361;52.120;5.108;2023-04-03T07:49:13;4.85;;;2.10;;
12591;SDS011;6361;52.120;5.108;2023-04-03T07:51:39;3.35;;;1.80;;
12591;SDS011;6361;52.120;5.108;2023-04-03T07:54:04;6.28;;;2.17;;
12591;SDS011;6361;52.120;5.108;2023-04-03T07:56:30;6.20;;;1.90;;
12591;SDS011;6361;52.120;5.108;2023-04-03T07:58:55;5.53;;;1.80;;
12591;SDS011;6361;52.120;5.108;2023-04-03T08:01:21;3.78;;;2.00;;
12591;SDS011;6361;52.120;5.108;2023-04-03T08:03:46;3.50;;;1.92;;
12591;SDS011;6361;52.120;5.108;2023-04-03T08:06:12;5.97;;;2.08;;
12591;SDS011;6361;52.120;5.108;2023-04-03T08:08:39;6.10;;;2.25;;
12591;SDS011;6361;52.120;5.108;2023-04-03T08:11:05;3.97;;;1.67;;
12591;SDS011;6361;52.120;5.108;2023-04-03T08:13:32;6.55;;;1.80;;
12591;SDS011;6361;52.120;5.108;2023-04-03T08:16:06;7.18;;;2.80;;
12591;SDS011;6361;52.120;5.108;2023-04-03T08:18:33;6.93;;;2.10;;
12591;SDS011;6361;52.120;5.108;2023-04-03T08:20:58;5.20;;;2.20;;
12591;SDS011;6361;52.120;5.108;2023-04-03T08:23:23;4.22;;;1.70;;
12591;SDS011;6361;52.120;5.108;2023-04-03T08:25:49;3.70;;;1.48;;
12591;SDS011;6361;52.120;5.108;2023-04-03T08:28:15;4.03;;;1.80;;
12591;SDS011;6361;52.120;5.108;2023-04-03T08:30:41;3.13;;;1.48;;
12591;SDS011;6361;52.120;5.108;2023-04-03T08:33:07;3.67;;;1.70;;
12591;SDS011;6361;52.120;5.108;2023-04-03T08:35:33;2.53;;;1.40;;
12591;SDS011;6361;52.120;5.108;2023-04-03T08:38:03;6.38;;;1.73;;
12591;SDS011;6361;52.120;5.108;2023-04-03T08:40:29;6.45;;;1.95;;
12591;SDS011;6361;52.120;5.108;2023-04-03T08:43:02;3.63;;;1.60;;
12591;SDS011;6361;52.120;5.108;2023-04-03T08:48:18;3.92;;;1.30;;
12591;SDS011;6361;52.120;5.108;2023-04-03T08:50:46;3.90;;;1.60;;
12591;SDS011;6361;52.120;5.108;2023-04-03T08:53:15;5.47;;;1.60;;
12591;SDS011;6361;52.120;5.108;2023-04-03T08:55:50;3.42;;;1.30;;
12591;SDS011;6361;52.120;5.108;2023-04-03T08:58:19;8.93;;;1.15;;
12591;SDS011;6361;52.120;5.108;2023-04-03T09:03:29;4.68;;;1.60;;
12591;SDS011;6361;52.120;5.108;2023-04-03T09:16:59;2.67;;;1.35;;
12591;SDS011;6361;52.120;5.108;2023-04-03T09:19:33;4.18;;;1.10;;
12591;SDS011;6361;52.120;5.108;2023-04-03T09:24:34;2.17;;;1.15;;
12591;SDS011;6361;52.120;5.108;2023-04-03T09:27:01;2.40;;;1.30;;
12591;SDS011;6361;52.120;5.108;2023-04-03T09:29:30;2.90;;;1.10;;
12591;SDS011;6361;52.120;5.108;2023-04-03T09:31:58;1.98;;;0.98;;
12591;SDS011;6361;52.120;5.108;2023-04-03T09:34:30;2.75;;;1.00;;
12591;SDS011;6361;52.120;5.108;2023-04-03T09:36:58;1.55;;;1.00;;
12591;SDS011;6361;52.120;5.108;2023-04-03T09:41:59;1.55;;;0.77;;
12591;SDS011;6361;52.120;5.108;2023-04-03T09:44:32;2.03;;;0.70;;
12591;SDS011;6361;52.120;5.108;2023-04-03T09:46:59;2.50;;;0.82;;
12591;SDS011;6361;52.120;5.108;2023-04-03T09:49:25;2.90;;;1.00;;
12591;SDS011;6361;52.120;5.108;2023-04-03T09:51:51;1.48;;;0.60;;
12591;SDS011;6361;52.120;5.108;2023-04-03T09:54:33;2.40;;;0.90;;
12591;SDS011;6361;52.120;5.108;2023-04-03T09:57:12;4.00;;;1.00;;
12591;SDS011;6361;52.120;5.108;2023-04-03T09:59:45;2.17;;;1.17;;
12591;SDS011;6361;52.120;5.108;2023-04-03T10:04:56;2.67;;;1.00;;
12591;SDS011;6361;52.120;5.108;2023-04-03T10:07:26;1.40;;;0.73;;
12591;SDS011;6361;52.120;5.108;2023-04-03T10:10:00;1.15;;;0.70;;
12591;SDS011;6361;52.120;5.108;2023-04-03T10:12:28;4.07;;;0.80;;
12591;SDS011;6361;52.120;5.108;2023-04-03T10:14:58;2.80;;;0.93;;
12591;SDS011;6361;52.120;5.108;2023-04-03T10:20:37;5.15;;;0.90;;
12591;SDS011;6361;52.120;5.108;2023-04-03T10:28:40;3.40;;;1.00;;
12591;SDS011;6361;52.120;5.108;2023-04-03T10:34:24;2.85;;;0.90;;
12591;SDS011;6361;52.120;5.108;2023-04-03T10:37:01;2.33;;;0.90;;
12591;SDS011;6361;52.120;5.108;2023-04-03T10:39:45;1.58;;;0.60;;
12591;SDS011;6361;52.120;5.108;2023-04-03T10:50:43;2.95;;;1.00;;
12591;SDS011;6361;52.120;5.108;2023-04-03T10:53:17;2.83;;;0.90;;
12591;SDS011;6361;52.120;5.108;2023-04-03T10:55:53;3.35;;;0.70;;
12591;SDS011;6361;52.120;5.108;2023-04-03T10:58:30;1.38;;;0.90;;
12591;SDS011;6361;52.120;5.108;2023-04-03T11:01:01;2.80;;;1.00;;
12591;SDS011;6361;52.120;5.108;2023-04-03T11:03:42;2.08;;;0.80;;
12591;SDS011;6361;52.120;5.108;2023-04-03T11:06:11;1.42;;;0.80;;
12591;SDS011;6361;52.120;5.108;2023-04-03T11:08:40;0.98;;;0.68;;
12591;SDS011;6361;52.120;5.108;2023-04-03T11:11:11;1.05;;;0.63;;
12591;SDS011;6361;52.120;5.108;2023-04-03T11:13:41;0.73;;;0.50;;
12591;SDS011;6361;52.120;5.108;2023-04-03T11:16:13;1.00;;;0.70;;
12591;SDS011;6361;52.120;5.108;2023-04-03T11:18:54;1.20;;;0.77;;
12591;SDS011;6361;52.120;5.108;2023-04-03T11:21:33;1.65;;;0.90;;
12591;SDS011;6361;52.120;5.108;2023-04-03T11:24:04;2.65;;;0.95;;
12591;SDS011;6361;52.120;5.108;2023-04-03T11:26:35;1.45;;;0.73;;
12591;SDS011;6361;52.120;5.108;2023-04-03T11:29:03;3.47;;;0.80;;
12591;SDS011;6361;52.120;5.108;2023-04-03T11:34:27;1.15;;;0.80;;
12591;SDS011;6361;52.120;5.108;2023-04-03T11:37:01;1.60;;;0.80;;
12591;SDS011;6361;52.120;5.108;2023-04-03T11:39:32;1.45;;;0.80;;
12591;SDS011;6361;52.120;5.108;2023-04-03T11:42:24;1.27;;;0.90;;
12591;SDS011;6361;52.120;5.108;2023-04-03T11:44:52;2.22;;;0.90;;
12591;SDS011;6361;52.120;5.108;2023-04-03T12:05:48;1.98;;;1.10;;
12591;SDS011;6361;52.120;5.108;2023-04-03T12:08:26;1.30;;;1.10;;
12591;SDS011;6361;52.120;5.108;2023-04-03T12:21:14;2.25;;;1.10;;
12591;SDS011;6361;52.120;5.108;2023-04-03T12:24:00;2.20;;;0.98;;
12591;SDS011;6361;52.120;5.108;2023-04-03T12:26:38;1.65;;;1.00;;
12591;SDS011;6361;52.120;5.108;2023-04-03T12:29:10;3.15;;;1.58;;
12591;SDS011;6361;52.120;5.108;2023-04-03T12:31:55;3.42;;;1.25;;
12591;SDS011;6361;52.120;5.108;2023-04-03T12:40:01;1.75;;;0.98;;
12591;SDS011;6361;52.120;5.108;2023-04-03T12:46:18;2.40;;;1.13;;
12591;SDS011;6361;52.120;5.108;2023-04-03T12:51:09;2.38;;;1.00;;
12591;SDS011;6361;52.120;5.108;2023-04-03T12:53:39;1.80;;;0.95;;
12591;SDS011;6361;52.120;5.108;2023-04-03T12:56:20;3.92;;;1.20;;
12591;SDS011;6361;52.120;5.108;2023-04-03T12:58:49;1.75;;;1.30;;
12591;SDS011;6361;52.120;5.108;2023-04-03T13:01:16;1.35;;;1.00;;
12591;SDS011;6361;52.120;5.108;2023-04-03T13:03:47;2.22;;;1.13;;
12591;SDS011;6361;52.120;5.108;2023-04-03T13:06:23;1.80;;;0.90;;
12591;SDS011;6361;52.120;5.108;2023-04-03T13:11:17;2.20;;;1.10;;
12591;SDS011;6361;52.120;5.108;2023-04-03T13:13:59;4.82;;;1.20;;
12591;SDS011;6361;52.120;5.108;2023-04-03T13:16:27;1.63;;;1.13;;
12591;SDS011;6361;52.120;5.108;2023-04-03T13:18:53;2.30;;;1.23;;
12591;SDS011;6361;52.120;5.108;2023-04-03T13:21:20;3.45;;;1.70;;
12591;SDS011;6361;52.120;5.108;2023-04-03T13:23:48;4.13;;;1.40;;
12591;SDS011;6361;52.120;5.108;2023-04-03T13:26:16;2.38;;;1.27;;
12591;SDS011;6361;52.120;5.108;2023-04-03T13:28:43;4.00;;;1.98;;
12591;SDS011;6361;52.120;5.108;2023-04-03T13:33:39;2.55;;;1.20;;
12591;SDS011;6361;52.120;5.108;2023-04-03T13:36:19;2.55;;;1.05;;
12591;SDS011;6361;52.120;5.108;2023-04-03T13:38:46;2.78;;;1.40;;
12591;SDS011;6361;52.120;5.108;2023-04-03T13:41:25;3.92;;;2.08;;
12591;SDS011;6361;52.120;5.108;2023-04-03T13:46:49;4.95;;;2.55;;
12591;SDS011;6361;52.120;5.108;2023-04-03T13:49:19;4.18;;;2.10;;
12591;SDS011;6361;52.120;5.108;2023-04-03T13:51:56;3.53;;;1.40;;
12591;SDS011;6361;52.120;5.108;2023-04-03T13:54:35;3.10;;;1.25;;
12591;SDS011;6361;52.120;5.108;2023-04-03T13:57:03;3.85;;;1.48;;
12591;SDS011;6361;52.120;5.108;2023-04-03T13:59:37;2.63;;;1.35;;
12591;SDS011;6361;52.120;5.108;2023-04-03T14:04:32;2.38;;;1.10;;
12591;SDS011;6361;52.120;5.108;2023-04-03T14:07:12;2.08;;;1.30;;
12591;SDS011;6361;52.120;5.108;2023-04-03T14:09:39;2.22;;;1.30;;
12591;SDS011;6361;52.120;5.108;2023-04-03T14:12:06;4.53;;;1.50;;
12591;SDS011;6361;52.120;5.108;2023-04-03T14:14:34;2.15;;;1.40;;
12591;SDS011;6361;52.120;5.108;2023-04-03T14:17:03;3.10;;;1.40;;
12591;SDS011;6361;52.120;5.108;2023-04-03T14:19:38;4.80;;;1.60;;
12591;SDS011;6361;52.120;5.108;2023-04-03T14:22:12;4.47;;;1.70;;
12591;SDS011;6361;52.120;5.108;2023-04-03T14:24:41;4.70;;;1.83;;
12591;SDS011;6361;52.120;5.108;2023-04-03T14:27:26;3.80;;;1.70;;
12591;SDS011;6361;52.120;5.108;2023-04-03T14:29:54;3.92;;;1.20;;
12591;SDS011;6361;52.120;5.108;2023-04-03T14:32:21;1.85;;;1.20;;
12591;SDS011;6361;52.120;5.108;2023-04-03T14:34:48;2.58;;;1.50;;
12591;SDS011;6361;52.120;5.108;2023-04-03T14:37:19;4.38;;;1.60;;
12591;SDS011;6361;52.120;5.108;2023-04-03T14:39:49;3.70;;;1.50;;
12591;SDS011;6361;52.120;5.108;2023-04-03T14:42:22;3.60;;;1.60;;
12591;SDS011;6361;52.120;5.108;2023-04-03T14:47:17;2.13;;;1.40;;
12591;SDS011;6361;52.120;5.108;2023-04-03T14:49:45;3.63;;;1.30;;
12591;SDS011;6361;52.120;5.108;2023-04-03T14:52:21;2.22;;;1.60;;
12591;SDS011;6361;52.120;5.108;2023-04-03T14:54:51;2.35;;;1.33;;
12591;SDS011;6361;52.120;5.108;2023-04-03T14:57:17;3.17;;;1.35;;
12591;SDS011;6361;52.120;5.108;2023-04-03T14:59:44;3.30;;;1.50;;
12591;SDS011;6361;52.120;5.108;2023-04-03T15:02:26;4.85;;;1.50;;
12591;SDS011;6361;52.120;5.108;2023-04-03T15:04:56;3.22;;;1.70;;
12591;SDS011;6361;52.120;5.108;2023-04-03T15:07:23;2.80;;;1.73;;
12591;SDS011;6361;52.120;5.108;2023-04-03T15:09:49;2.65;;;1.40;;
12591;SDS011;6361;52.120;5.108;2023-04-03T15:12:14;4.15;;;1.75;;
12591;SDS011;6361;52.120;5.108;2023-04-03T15:14:40;5.05;;;2.03;;
12591;SDS011;6361;52.120;5.108;2023-04-03T15:17:05;5.10;;;1.85;;
12591;SDS011;6361;52.120;5.108;2023-04-03T15:19:36;3.97;;;1.65;;
12591;SDS011;6361;52.120;5.108;2023-04-03T15:22:02;2.70;;;1.40;;
12591;SDS011;6361;52.120;5.108;2023-04-03T15:24:28;3.25;;;1.40;;
12591;SDS011;6361;52.120;5.108;2023-04-03T15:26:53;2.55;;;1.42;;
12591;SDS011;6361;52.120;5.108;2023-04-03T15:29:19;2.50;;;1.50;;
12591;SDS011;6361;52.120;5.108;2023-04-03T15:31:44;3.25;;;2.20;;
12591;SDS011;6361;52.120;5.108;2023-04-03T15:34:10;4.32;;;1.67;;
12591;SDS011;6361;52.120;5.108;2023-04-03T15:36:35;5.00;;;1.33;;
12591;SDS011;6361;52.120;5.108;2023-04-03T15:39:00;3.80;;;1.90;;
12591;SDS011;6361;52.120;5.108;2023-04-03T15:41:26;2.13;;;1.60;;
12591;SDS011;6361;52.120;5.108;2023-04-03T15:43:51;2.92;;;1.50;;
12591;SDS011;6361;52.120;5.108;2023-04-03T15:46:16;3.75;;;1.50;;
12591;SDS011;6361;52.120;5.108;2023-04-03T15:48:42;4.70;;;2.10;;
12591;SDS011;6361;52.120;5.108;2023-04-03T15:51:07;3.60;;;1.88;;
12591;SDS011;6361;52.120;5.108;2023-04-03T15:53:33;4.07;;;1.80;;
12591;SDS011;6361;52.120;5.108;2023-04-03T15:55:58;3.90;;;1.90;;
12591;SDS011;6361;52.120;5.108;2023-04-03T15:58:23;4.97;;;1.90;;
12591;SDS011;6361;52.120;5.108;2023-04-03T16:00:50;3.38;;;1.88;;
12591;SDS011;6361;52.120;5.108;2023-04-03T16:03:16;3.95;;;1.90;;
12591;SDS011;6361;52.120;5.108;2023-04-03T16:05:42;4.65;;;1.60;;
12591;SDS011;6361;52.120;5.108;2023-04-03T16:08:08;4.85;;;1.70;;
12591;SDS011;6361;52.120;5.108;2023-04-03T16:10:36;4.38;;;1.45;;
12591;SDS011;6361;52.120;5.108;2023-04-03T16:13:02;9.38;;;4.32;;
12591;SDS011;6361;52.120;5.108;2023-04-03T16:15:29;6.65;;;3.20;;
12591;SDS011;6361;52.120;5.108;2023-04-03T16:17:55;4.88;;;2.15;;
12591;SDS011;6361;52.120;5.108;2023-04-03T16:20:20;7.20;;;2.05;;
12591;SDS011;6361;52.120;5.108;2023-04-03T16:22:46;5.43;;;2.08;;
12591;SDS011;6361;52.120;5.108;2023-04-03T16:25:12;4.97;;;1.98;;
12591;SDS011;6361;52.120;5.108;2023-04-03T16:27:38;4.32;;;2.03;;
12591;SDS011;6361;52.120;5.108;2023-04-03T16:30:05;4.35;;;2.00;;
12591;SDS011;6361;52.120;5.108;2023-04-03T16:32:31;2.92;;;1.80;;
12591;SDS011;6361;52.120;5.108;2023-04-03T16:35:00;4.22;;;2.13;;
12591;SDS011;6361;52.120;5.108;2023-04-03T16:37:25;5.20;;;2.00;;
12591;SDS011;6361;52.120;5.108;2023-04-03T16:39:51;3.55;;;1.42;;
12591;SDS011;6361;52.120;5.108;2023-04-03T16:42:17;4.55;;;1.98;;
12591;SDS011;6361;52.120;5.108;2023-04-03T16:44:42;3.85;;;2.05;;
12591;SDS011;6361;52.120;5.108;2023-04-03T16:47:07;6.03;;;2.10;;
12591;SDS011;6361;52.120;5.108;2023-04-03T16:49:33;4.15;;;2.35;;
12591;SDS011;6361;52.120;5.108;2023-04-03T16:52:00;9.00;;;2.53;;
12591;SDS011;6361;52.120;5.108;2023-04-03T16:54:26;6.50;;;3.20;;